San Simon, AZ (85632)

5:27 PM MST on June 02, 2015 (GMT -0700)
C Bar Ranch Chiricahua Mtns. | | Change Station
CLOSE
Current Station
Personal Weather Station
Location: Willcox, AZ
Elevation: 4948 ft
Nearby Weather Stations

Elev 4948 ft 32.02 °N, 109.44 °W | Updated 3 minutes ago

Clear
Clear
89.4 °F
Feels Like 85 °F
N
13.0
Wind Variable Wind from WSW
Gusts 17.0 mph

Today
High -- | Low -- °F
--% Chance of Precip.
Yesterday
High -- | Low -- °F
Precip. -- in
5:11 AM 7:19 PM
Full, 100% visible
Pressure 29.68 in
Visibility 10.0 miles
Clouds Mostly Cloudy 11000 ft
Heat Index 85 °F
Dew Point 21 °F
Humidity 8%
Rainfall 0.00 in
Snow Depth Not available.
UV 2 out of 12
Pollen 6.00 out of 12
Air Quality Not available.
Flu Activity Local Activity
METAR KSAD 022351Z AUTO 28015G19KT 10SM BKN110 38/M06 A2984 RMK AO2 SLP049 T03781056 10383 20322 56024

More Conditions Fewer Conditions

Pressure 29.68 in
Visibility 10.0 miles
Clouds Mostly Cloudy 11000 ft
Heat Index 85 °F
Dew Point 21 °F
Humidity 8%
Rainfall 0.00 in
Snow Depth Not available.
UV 2 out of 12
Pollen 6.00 out of 12
Air Quality Not available.
Flu Activity Local Activity
METAR KSAD 022351Z AUTO 28015G19KT 10SM BKN110 38/M06 A2984 RMK AO2 SLP049 T03781056 10383 20322 56024

More Conditions Fewer Conditions

10-Day Weather Forecast

×

Almanac

Astronomy

Jun. 02, 2015 Rise Set
Actual Time
Civil Twilight
Nautical Twilight
Astronomical Twilight
Moon
Length of Visible Light
Length of Day
Tomorrow will be .
, % of the Moon is Illuminated

Today's Extremes

State Highs State Lows

Community

WunderPhotos

Upload Photos

1,826,075 photos uploaded!

WunderBlogs® & News

Nearby

Air Quality

  Air Quality AQ Index Pollutant
Not available.

Snow Depth

Station Depth Elevation

Earthquake Activity

City Distance Mag. Time & Date
Minimum magnitude displayed is 2.5.

Coastal Water Temperatures

Place Temperature

Stations

Nearby Weather Stations

Station Location Temp. Windchill Dew Point Humidity Wind Precip. Elev Updated Type